SIB weather

Sibiti Airport
Sibiti, L├ękoumou Department, Congo (Brazzaville)

Public forecast

Using degrees Celsius for public forecast. Weather courtesy of forecast.io.

METAR (pilot weather report)

Report is more than 6 hours old.

Retrieved 2017/03/27 15:00 UTC (2 years ago):

FCBS 271500Z 22006KT 9999 TS FEW023TCU FEW028CB 32/24 Q1011

TAF (pilot weather forecast)

Forecast is more than 12 hours old.

Closest forecast is Pointe Noire Airport, 110.9 nm (205.4 km) SW. Retrieved 2019/04/20 00:00 UTC (1 day ago):

TAF FCPP 202300Z 2100/2124 20007KT 8000 FEW010 BKN023 FEW030CB PROB40 2101/2106 TS BECMG 2107/2109 SCT015 BECMG 2112/2114 SCT020 FEW030CB